Terminal Aerodrome Forecast
Issued by NWS Upton, NY

Current Version | Previous Version | Text Only | Print | Product List | Glossary On
Versions: 1 2 3 4 5 6 7 8 9 10 11 12 13 14 15 16 17 18 19 20 21 22 23 24 25 26
000
FTUS41 KOKX 270539
TAFISP
TAF
KISP 270539Z 2706/2806 21011KT P6SM SCT012 BKN200
      TEMPO 2710/2712 4SM BR BKN012
     FM271300 19012G18KT P6SM BKN050
     FM271800 19016G21KT P6SM BKN040
     FM280100 20011KT 6SM BR SCT010 BKN040=

USA.gov is the U.S. government's official web portal to all federal, state and local government web resources and services.